createdAt,value
2018-12-16T03:14:09.429Z,1001.18
2018-12-16T03:15:09.387Z,1001.18
2018-12-16T03:16:09.347Z,1001.13
2018-12-16T03:17:09.362Z,1001.08
2018-12-16T03:18:09.284Z,1001.07
2018-12-16T03:19:09.268Z,1001.06
2018-12-16T03:20:09.263Z,1000.97
2018-12-16T03:21:09.250Z,1000.94
2018-12-16T03:22:09.212Z,1000.90
2018-12-16T03:23:12.507Z,1000.92
2018-12-16T03:24:09.397Z,1000.90
2018-12-16T03:25:09.196Z,1000.88
2018-12-16T03:26:09.171Z,1000.82
2018-12-16T03:27:09.148Z,1000.82
2018-12-16T03:28:09.120Z,1000.79
2018-12-16T03:29:09.118Z,1000.82
2018-12-16T03:30:09.116Z,1000.72
2018-12-16T03:31:09.083Z,1000.70
2018-12-16T03:32:09.102Z,1000.69
2018-12-16T03:33:09.075Z,1000.67
2018-12-16T03:34:09.054Z,1000.64
2018-12-16T03:35:09.067Z,1000.59
2018-12-16T03:36:09.017Z,1000.58
2018-12-16T03:37:08.997Z,1000.58
2018-12-16T03:38:08.982Z,1000.54
2018-12-16T03:39:08.982Z,1000.53
2018-12-16T03:40:08.949Z,1000.49
2018-12-16T03:41:08.940Z,1000.46
2018-12-16T03:42:08.956Z,1000.42
2018-12-16T03:43:08.917Z,1000.43
2018-12-16T03:44:08.930Z,1000.39
2018-12-16T03:45:08.892Z,1000.45
2018-12-16T03:46:08.866Z,1000.41
2018-12-16T03:47:08.854Z,1000.37
2018-12-16T03:48:08.852Z,1000.27
2018-12-16T03:49:08.912Z,1000.25
2018-12-16T03:50:08.833Z,1000.22
2018-12-16T03:51:08.805Z,1000.22
2018-12-16T03:52:08.786Z,1000.21
2018-12-16T03:53:08.772Z,1000.27
2018-12-16T03:54:08.786Z,1000.26
2018-12-16T03:55:08.772Z,1000.21
2018-12-16T03:56:08.727Z,1000.19
2018-12-16T03:57:08.728Z,1000.14
2018-12-16T03:58:08.718Z,1000.15
2018-12-16T03:59:08.713Z,1000.10
2018-12-16T04:00:08.686Z,1000.06
2018-12-16T04:01:08.695Z,1000.06
2018-12-16T04:02:08.649Z,1000.04
2018-12-16T04:03:08.644Z,1000.06
2018-12-16T04:04:08.651Z,1000.01
2018-12-16T04:05:08.643Z,999.98
2018-12-16T04:06:08.662Z,999.88
2018-12-16T04:07:08.589Z,999.92
2018-12-16T04:08:08.589Z,999.89
2018-12-16T04:09:08.575Z,999.87
2018-12-16T04:10:08.570Z,999.85
2018-12-16T04:11:08.520Z,999.85
2018-12-16T04:12:08.556Z,999.84
2018-12-16T04:13:08.524Z,999.78
2018-12-16T04:14:08.502Z,999.78
2018-12-16T04:15:08.528Z,999.76
2018-12-16T04:16:08.468Z,999.79
2018-12-16T04:17:08.463Z,999.71
2018-12-16T04:18:08.462Z,999.70
2018-12-16T04:19:08.453Z,999.68
2018-12-16T04:20:08.434Z,999.68
2018-12-16T04:21:08.382Z,999.66
2018-12-16T04:22:08.362Z,999.63
2018-12-16T04:23:08.367Z,999.61
2018-12-16T04:24:08.360Z,999.63
2018-12-16T04:25:08.359Z,999.60
2018-12-16T04:26:08.305Z,999.61
2018-12-16T04:27:08.286Z,999.62
2018-12-16T04:28:17.128Z,999.63
2018-12-16T04:30:09.728Z,999.68
2018-12-16T04:31:01.945Z,999.64
2018-12-16T04:32:02.165Z,999.63
2018-12-16T04:33:01.849Z,999.64
2018-12-16T04:34:01.830Z,999.65
2018-12-16T04:35:01.807Z,999.65
2018-12-16T04:36:01.786Z,999.63
2018-12-16T04:37:11.456Z,999.67
2018-12-16T04:39:06.251Z,999.67
2018-12-16T04:40:06.251Z,999.74
2018-12-16T04:41:06.224Z,999.73
2018-12-16T04:42:06.335Z,999.69
2018-12-16T04:43:06.166Z,999.75
2018-12-16T04:44:07.292Z,999.78
2018-12-16T04:45:06.170Z,999.79
2018-12-16T04:46:06.162Z,999.79
2018-12-16T04:47:06.126Z,999.80
2018-12-16T04:48:06.122Z,999.85
2018-12-16T04:49:06.081Z,999.87
2018-12-16T04:50:06.087Z,999.79
2018-12-16T04:51:06.088Z,999.85
2018-12-16T04:52:06.033Z,999.90
2018-12-16T04:53:06.038Z,999.88
2018-12-16T04:54:06.031Z,999.87
2018-12-16T04:55:05.992Z,999.89
2018-12-16T04:56:05.983Z,999.93
2018-12-16T04:57:05.973Z,999.87
2018-12-16T04:58:05.978Z,999.86
2018-12-16T04:59:05.963Z,999.91
2018-12-16T05:00:05.948Z,999.90
2018-12-16T05:01:05.954Z,999.94
2018-12-16T05:02:05.902Z,999.93
2018-12-16T05:03:05.892Z,999.99
2018-12-16T05:04:05.882Z,1000.00
2018-12-16T05:05:05.850Z,1000.02
2018-12-16T05:06:05.838Z,1000.03
2018-12-16T05:07:05.833Z,1000.05
2018-12-16T05:08:05.826Z,1000.06
2018-12-16T05:09:05.812Z,1000.02
2018-12-16T05:10:05.779Z,1000.00
2018-12-16T05:11:05.765Z,1000.04
2018-12-16T05:12:05.765Z,1000.04
2018-12-16T05:13:05.776Z,1000.03
2018-12-16T05:14:05.739Z,1000.01
2018-12-16T05:15:05.714Z,1000.02
2018-12-16T05:16:05.713Z,1000.06
2018-12-16T05:17:05.728Z,1000.08
2018-12-16T05:18:05.713Z,1000.07
2018-12-16T05:19:05.677Z,1000.10
2018-12-16T05:20:05.649Z,1000.13
2018-12-16T05:21:05.631Z,1000.11
2018-12-16T05:22:05.644Z,1000.14
2018-12-16T05:23:05.616Z,1000.15
2018-12-16T05:24:05.611Z,1000.11
2018-12-16T05:25:05.579Z,1000.11
2018-12-16T05:26:05.589Z,1000.07
2018-12-16T05:27:05.553Z,1000.03
2018-12-16T05:28:14.393Z,1000.03
2018-12-16T05:30:10.137Z,1000.01
2018-12-16T05:31:18.963Z,999.99
2018-12-16T05:33:14.533Z,1000.05
2018-12-16T05:34:14.477Z,1000.00
2018-12-16T05:35:14.474Z,999.98
2018-12-16T05:36:14.449Z,1000.02
2018-12-16T05:37:14.425Z,1000.01
2018-12-16T05:38:14.420Z,1000.04
2018-12-16T05:39:14.440Z,1000.10
2018-12-16T05:40:14.525Z,1000.04
2018-12-16T05:41:14.393Z,1000.05
2018-12-16T05:42:14.378Z,1000.08
2018-12-16T05:43:14.344Z,1000.01
2018-12-16T05:44:14.361Z,999.97
2018-12-16T05:45:14.317Z,999.99
2018-12-16T05:46:14.297Z,999.91
2018-12-16T05:47:14.281Z,999.85
2018-12-16T05:48:14.320Z,999.86
2018-12-16T05:49:14.276Z,999.82
2018-12-16T05:50:14.280Z,999.84
2018-12-16T05:51:14.288Z,999.79
2018-12-16T05:52:14.223Z,999.87
2018-12-16T05:53:14.226Z,999.85
2018-12-16T05:54:14.221Z,999.86
2018-12-16T05:55:14.181Z,999.85
2018-12-16T05:56:14.192Z,999.87
2018-12-16T05:57:14.154Z,999.93
2018-12-16T05:58:14.181Z,999.91
2018-12-16T05:59:14.136Z,999.98
2018-12-16T06:00:14.151Z,1000.00
2018-12-16T06:01:14.094Z,999.98
2018-12-16T06:02:14.092Z,999.97
2018-12-16T06:03:14.064Z,999.98
2018-12-16T06:04:14.065Z,1000.01
2018-12-16T06:05:14.039Z,999.97
2018-12-16T06:06:14.050Z,999.97
2018-12-16T06:07:14.120Z,999.96
2018-12-16T06:08:14.005Z,1000.01
2018-12-16T06:09:14.004Z,999.95
2018-12-16T06:10:14.005Z,999.94
2018-12-16T06:11:13.999Z,999.96
2018-12-16T06:12:13.977Z,999.99
2018-12-16T06:13:13.927Z,999.96
2018-12-16T06:14:13.948Z,999.95
2018-12-16T06:15:13.928Z,999.94
2018-12-16T06:16:13.915Z,999.91
2018-12-16T06:17:13.909Z,999.91
2018-12-16T06:18:13.892Z,999.88
2018-12-16T06:19:13.900Z,999.87
2018-12-16T06:20:13.852Z,999.80
2018-12-16T06:21:13.843Z,999.80
2018-12-16T06:22:13.837Z,999.79
2018-12-16T06:23:13.851Z,999.79
2018-12-16T06:24:13.818Z,999.79
2018-12-16T06:25:13.772Z,999.81
2018-12-16T06:26:13.762Z,999.78
2018-12-16T06:27:22.560Z,999.76
2018-12-16T06:29:18.265Z,999.67
2018-12-16T06:30:18.191Z,999.68
2018-12-16T06:31:18.203Z,999.70
2018-12-16T06:32:18.211Z,999.67
2018-12-16T06:33:18.463Z,999.61
2018-12-16T06:34:18.187Z,999.60
2018-12-16T06:35:18.135Z,999.58
2018-12-16T06:36:18.179Z,999.58
2018-12-16T06:37:18.114Z,999.58
2018-12-16T06:38:18.090Z,999.57
2018-12-16T06:39:18.116Z,999.59
2018-12-16T06:40:18.125Z,999.56
2018-12-16T06:41:18.152Z,999.65
2018-12-16T06:42:18.052Z,999.63
2018-12-16T06:43:18.011Z,999.69
2018-12-16T06:44:18.061Z,999.62
2018-12-16T06:45:17.989Z,999.64
2018-12-16T06:46:18.026Z,999.67
2018-12-16T06:47:17.974Z,999.68
2018-12-16T06:48:17.986Z,999.64
2018-12-16T06:49:17.980Z,999.63
2018-12-16T06:50:17.913Z,999.59
2018-12-16T06:51:17.908Z,999.61
2018-12-16T06:52:17.911Z,999.65
2018-12-16T06:53:17.875Z,999.70
2018-12-16T06:54:17.936Z,999.70
2018-12-16T06:55:17.887Z,999.71
2018-12-16T06:56:17.918Z,999.71
2018-12-16T06:57:17.834Z,999.76
2018-12-16T06:58:17.838Z,999.80
2018-12-16T06:59:17.837Z,999.76
2018-12-16T07:00:17.842Z,999.78
2018-12-16T07:01:17.812Z,999.78
2018-12-16T07:02:17.845Z,999.78
2018-12-16T07:03:26.571Z,999.80
2018-12-16T07:05:12.097Z,999.85
2018-12-16T07:06:11.994Z,999.79
2018-12-16T07:07:12.025Z,999.85
2018-12-16T07:08:12.002Z,999.90
2018-12-16T07:09:12.115Z,999.91
2018-12-16T07:10:12.041Z,999.90
2018-12-16T07:11:12.072Z,999.97
2018-12-16T07:12:11.966Z,999.96
2018-12-16T07:13:11.953Z,999.99
2018-12-16T07:14:11.917Z,1000.03
2018-12-16T07:15:11.883Z,1000.03
2018-12-16T07:16:11.864Z,1000.04
2018-12-16T07:17:11.864Z,1000.02
2018-12-16T07:18:11.835Z,1000.01
2018-12-16T07:19:11.844Z,1000.07
2018-12-16T07:20:11.846Z,1000.05
2018-12-16T07:21:11.800Z,1000.14
2018-12-16T07:22:11.830Z,1000.16
2018-12-16T07:23:11.798Z,1000.17
2018-12-16T07:24:11.766Z,1000.19
2018-12-16T07:25:11.744Z,1000.23
2018-12-16T07:26:11.751Z,1000.25
2018-12-16T07:27:20.482Z,1000.29
2018-12-16T07:29:14.252Z,1000.29
2018-12-16T07:30:05.323Z,1000.34
2018-12-16T07:31:14.045Z,1000.35
2018-12-16T07:33:09.758Z,1000.29
2018-12-16T07:34:09.774Z,1000.30
2018-12-16T07:35:09.725Z,1000.30
2018-12-16T07:36:18.461Z,1000.29
2018-12-16T07:38:15.678Z,1000.32
2018-12-16T07:39:15.143Z,1000.30
2018-12-16T07:40:15.155Z,1000.32
2018-12-16T07:41:15.163Z,1000.33
2018-12-16T07:42:15.145Z,1000.38
2018-12-16T07:43:15.149Z,1000.43
2018-12-16T07:44:15.133Z,1000.44
2018-12-16T07:45:15.107Z,1000.43
2018-12-16T07:46:15.086Z,1000.43
2018-12-16T07:47:15.076Z,1000.47
2018-12-16T07:48:15.067Z,1000.47
2018-12-16T07:49:15.014Z,1000.50
2018-12-16T07:50:14.997Z,1000.54
2018-12-16T07:51:15.018Z,1000.54
2018-12-16T07:52:14.964Z,1000.55
2018-12-16T07:53:14.974Z,1000.56
2018-12-16T07:54:16.223Z,1000.59
2018-12-16T07:55:15.010Z,1000.55
2018-12-16T07:56:14.950Z,1000.52
2018-12-16T07:57:14.917Z,1000.54
2018-12-16T07:58:14.917Z,1000.55
2018-12-16T07:59:14.911Z,1000.55
2018-12-16T08:00:14.860Z,1000.65
2018-12-16T08:01:14.944Z,1000.64
2018-12-16T08:02:14.958Z,1000.70
2018-12-16T08:03:14.883Z,1000.75
2018-12-16T08:04:14.845Z,1000.75
2018-12-16T08:05:14.839Z,1000.77
2018-12-16T08:06:14.799Z,1000.76
2018-12-16T08:07:14.799Z,1000.80
2018-12-16T08:08:14.794Z,1000.78
2018-12-16T08:09:14.741Z,1000.79
2018-12-16T08:10:14.758Z,1000.75
2018-12-16T08:11:14.727Z,1000.74
2018-12-16T08:12:14.702Z,1000.71
2018-12-16T08:13:14.694Z,1000.70
2018-12-16T08:14:14.680Z,1000.72
2018-12-16T08:15:14.668Z,1000.67
2018-12-16T08:16:14.654Z,1000.68
2018-12-16T08:17:14.646Z,1000.67
2018-12-16T08:18:14.660Z,1000.72
2018-12-16T08:19:14.612Z,1000.72
2018-12-16T08:20:14.652Z,1000.73
2018-12-16T08:21:14.591Z,1000.71
2018-12-16T08:22:14.592Z,1000.73
2018-12-16T08:23:14.566Z,1000.75
2018-12-16T08:24:14.583Z,1000.75
2018-12-16T08:25:14.542Z,1000.76
2018-12-16T08:26:14.531Z,1000.77
2018-12-16T08:27:14.501Z,1000.73
2018-12-16T08:28:14.569Z,1000.82
2018-12-16T08:29:14.548Z,1000.82
2018-12-16T08:30:14.507Z,1000.83
2018-12-16T08:31:14.454Z,1000.81
2018-12-16T08:32:14.791Z,1000.83
2018-12-16T08:33:14.452Z,1000.87
2018-12-16T08:34:14.506Z,1000.93
2018-12-16T08:35:23.956Z,1000.97
2018-12-16T08:37:28.950Z,1000.95
2018-12-16T08:38:18.895Z,1000.99
2018-12-16T08:39:19.493Z,1000.96
2018-12-16T08:40:18.889Z,1000.97
2018-12-16T08:41:27.808Z,1000.91
2018-12-16T08:43:23.365Z,1000.92
2018-12-16T08:44:23.308Z,1000.91
2018-12-16T08:45:23.319Z,1000.89
2018-12-16T08:46:23.294Z,1000.90
2018-12-16T08:47:23.297Z,1000.88
2018-12-16T08:48:23.255Z,1000.93
2018-12-16T08:49:23.337Z,1000.91
2018-12-16T08:50:23.250Z,1000.93
2018-12-16T08:51:23.205Z,1000.93
2018-12-16T08:52:23.201Z,1000.91
2018-12-16T08:53:23.182Z,1000.93
2018-12-16T08:54:29.959Z,1001.03
2018-12-16T08:55:23.156Z,1000.99
2018-12-16T08:56:23.147Z,1001.00
2018-12-16T08:57:23.184Z,1000.94
2018-12-16T08:58:23.144Z,1000.99
2018-12-16T08:59:23.120Z,1000.98
2018-12-16T09:00:23.119Z,1000.97
2018-12-16T09:01:23.090Z,1000.98
2018-12-16T09:02:32.729Z,1000.95
2018-12-16T09:04:30.406Z,1000.94
2018-12-16T09:05:30.164Z,1000.95
2018-12-16T09:07:45.891Z,1000.97
2018-12-16T09:08:45.906Z,1001.01
2018-12-16T09:09:46.452Z,1001.03
2018-12-16T09:10:45.856Z,1001.03
2018-12-16T09:11:45.892Z,1001.04
2018-12-16T09:12:45.845Z,1001.07
2018-12-16T09:13:45.849Z,1001.05
2018-12-16T09:14:45.810Z,1001.09
2018-12-16T09:15:45.820Z,1001.11
2018-12-16T09:16:45.784Z,1001.12
2018-12-16T09:17:45.770Z,1001.13
2018-12-16T09:18:45.793Z,1001.16
2018-12-16T09:19:45.845Z,1001.20
2018-12-16T09:20:45.720Z,1001.21
2018-12-16T09:21:45.804Z,1001.22
2018-12-16T09:22:45.714Z,1001.21
2018-12-16T09:23:45.825Z,1001.19
2018-12-16T09:24:46.038Z,1001.19
2018-12-16T09:25:46.071Z,1001.20
2018-12-16T09:28:20.428Z,1001.28
2018-12-16T09:29:20.964Z,1001.33
2018-12-16T09:31:15.066Z,1001.33
2018-12-16T09:32:16.509Z,1001.37
2018-12-16T09:33:25.585Z,1001.38
2018-12-16T09:34:24.937Z,1001.42
2018-12-16T09:36:17.537Z,1001.44
2018-12-16T09:37:08.893Z,1001.42
2018-12-16T09:41:23.099Z,1001.43
2018-12-16T09:42:23.158Z,1001.39
2018-12-16T09:43:25.602Z,1001.40
2018-12-16T09:47:46.137Z,1001.40
2018-12-16T09:48:46.064Z,1001.40
2018-12-16T09:49:45.527Z,1001.41
2018-12-16T09:50:46.256Z,1001.40
2018-12-16T09:51:45.469Z,1001.39
2018-12-16T09:52:45.304Z,1001.39
2018-12-16T09:53:45.301Z,1001.42
2018-12-16T09:54:45.271Z,1001.40
2018-12-16T09:55:45.188Z,1001.38
2018-12-16T09:56:45.330Z,1001.35
2018-12-16T09:57:45.203Z,1001.37
2018-12-16T09:58:45.866Z,1001.36
2018-12-16T09:59:54.463Z,1001.40
2018-12-16T10:01:50.558Z,1001.36
2018-12-16T10:03:00.572Z,1001.42
2018-12-16T10:05:07.566Z,1001.41
2018-12-16T10:08:15.771Z,1001.43
2018-12-16T10:09:15.359Z,1001.44
2018-12-16T10:10:15.845Z,1001.44
2018-12-16T10:11:25.242Z,1001.44
2018-12-16T10:13:22.097Z,1001.46
2018-12-16T10:14:19.753Z,1001.38
2018-12-16T10:15:19.795Z,1001.41
2018-12-16T10:16:19.795Z,1001.35
